Time;durP1;ratioP1;P1;durP2;ratioP2;P2;SDS_P1;SDS_P2;PMS_P1;PMS_P2;Temp;Humidity;BMP_temperature;BMP_pressure;BME280_temperature;BME280_humidity;BME280_pressure;Samples;Min_cycle;Max_cycle;Signal;HPM_P1;HPM_P2
2021/12/25 00:00:56;;;;;;;9.20;1.90;;;;;;;;;;5029945;28;20037;-72
2021/12/25 00:03:22;;;;;;;4.93;1.13;;;;;;;;;;5030548;28;20167;-72
2021/12/25 00:05:52;;;;;;;3.95;0.90;;;;;;;;;;5030230;28;20045;-72
2021/12/25 00:08:18;;;;;;;5.20;1.10;;;;;;;;;;5030125;28;20120;-72
2021/12/25 00:10:44;;;;;;;5.57;1.30;;;;;;;;;;5013452;28;20064;-72
2021/12/25 00:13:10;;;;;;;5.53;1.05;;;;;;;;;;5030152;28;20520;-72
2021/12/25 00:15:36;;;;;;;5.13;1.48;;;;;;;;;;5030089;28;20075;-72
2021/12/25 00:18:02;;;;;;;3.83;1.02;;;;;;;;;;5032786;28;20048;-72
2021/12/25 00:20:28;;;;;;;2.83;0.77;;;;;;;;;;5028130;23;20068;-69
2021/12/25 00:22:54;;;;;;;4.70;1.55;;;;;;;;;;5015447;28;20140;-69
2021/12/25 00:25:22;;;;;;;2.20;1.10;;;;;;;;;;4997727;28;20515;-69
2021/12/25 00:28:02;;;;;;;5.03;1.10;;;;;;;;;;4997669;28;20045;-69
2021/12/25 00:30:36;;;;;;;5.60;1.10;;;;;;;;;;5010764;28;20535;-69
2021/12/25 00:33:07;;;;;;;9.60;2.15;;;0.60;99.90;;;;;;5015172;28;20184;-68
2021/12/25 00:35:33;;;;;;;7.72;2.05;;;;;;;;;;5015058;28;20052;-68
2021/12/25 00:37:59;;;;;;;5.05;1.27;;;;;;;;;;5014196;28;20045;-68
2021/12/25 00:40:28;;;;;;;4.38;1.10;;;;;;;;;;5013534;28;20072;-68
2021/12/25 00:42:53;;;;;;;2.20;1.70;;;;;;;;;;5015245;28;20042;-68
2021/12/25 00:45:19;;;;;;;3.08;0.90;;;0.50;99.90;;;;;;5013537;28;20104;-68
2021/12/25 00:47:45;;;;;;;3.40;0.90;;;;;;;;;;5013717;28;20137;-68
2021/12/25 00:50:11;;;;;;;5.97;0.93;;;0.50;99.90;;;;;;4996825;28;20042;-68
2021/12/25 00:52:37;;;;;;;5.65;1.45;;;0.50;99.90;;;;;;5013788;28;20057;-68
2021/12/25 00:55:05;;;;;;;4.82;0.90;;;0.40;99.90;;;;;;5013400;28;20042;-68
2021/12/25 00:57:31;;;;;;;4.45;0.73;;;;;;;;;;5013187;28;20084;-71
2021/12/25 00:59:57;;;;;;;3.03;0.93;;;;;;;;;;5012902;28;20155;-68
2021/12/25 01:02:23;;;;;;;2.15;0.95;;;;;;;;;;5013613;28;20046;-68
2021/12/25 01:04:49;;;;;;;3.08;0.70;;;;;;;;;;5013414;28;20069;-68
2021/12/25 01:07:14;;;;;;;4.43;0.95;;;0.30;99.90;;;;;;5013516;28;20042;-68
2021/12/25 01:09:40;;;;;;;5.28;1.63;;;;;;;;;;5014240;28;20561;-68
2021/12/25 01:12:06;;;;;;;3.08;1.25;;;0.30;99.90;;;;;;5014601;28;20132;-68
2021/12/25 01:14:39;;;;;;;6.63;1.45;;;0.10;99.90;;;;;;5013222;28;20037;-68
2021/12/25 01:20:12;;;;;;;2.33;0.73;;;0.10;99.90;;;;;;5012479;28;20515;-68
2021/12/25 01:23:16;;;;;;;3.78;1.50;;;;;;;;;;5012769;28;20129;-68
2021/12/25 01:26:00;;;;;;;3.90;0.85;;;;;;;;;;5012973;28;20072;-68
2021/12/25 01:34:27;;;;;;;1.88;0.88;;;;;;;;;;5012673;28;20053;-68
2021/12/25 01:39:40;;;;;;;1.42;0.70;;;;;;;;;;5012342;28;20305;-69
2021/12/25 01:47:45;;;;;;;3.75;1.00;;;0.00;99.90;;;;;;5012364;28;20474;-70
2021/12/25 01:50:10;;;;;;;5.47;1.10;;;;;;;;;;5012135;28;20061;-68
2021/12/25 01:52:36;;;;;;;3.47;0.80;;;;;;;;;;5012341;28;20045;-70
2021/12/25 01:55:10;;;;;;;2.17;0.90;;;;;;;;;;4995895;28;20046;-68
2021/12/25 01:57:36;;;;;;;4.05;0.85;;;;;;;;;;5012479;28;20048;-68
2021/12/25 02:00:06;;;;;;;3.60;1.05;;;-0.40;99.90;;;;;;5011777;28;20037;-68
2021/12/25 02:02:32;;;;;;;2.58;0.77;;;;;;;;;;5012497;28;20633;-68
2021/12/25 02:04:58;;;;;;;0.95;0.50;;;-0.40;99.90;;;;;;5012083;28;20072;-68
2021/12/25 02:07:23;;;;;;;2.25;0.70;;;-0.30;99.90;;;;;;4995796;28;20050;-68
2021/12/25 02:09:49;;;;;;;1.30;0.75;;;;;;;;;;5012100;28;20064;-68
2021/12/25 02:12:16;;;;;;;6.20;1.85;;;;;;;;;;5012578;28;20049;-68
2021/12/25 02:14:44;;;;;;;2.65;1.00;;;;;;;;;;5012000;28;20042;-68
2021/12/25 02:17:21;;;;;;;1.15;0.47;;;;;;;;;;5012128;28;20453;-68
2021/12/25 02:19:54;;;;;;;2.95;0.70;;;;;;;;;;5011869;28;20046;-69
2021/12/25 02:22:24;;;;;;;3.00;0.80;;;;;;;;;;4995488;28;20073;-68
2021/12/25 02:24:50;;;;;;;5.95;0.90;;;;;;;;;;5011767;28;20288;-68
2021/12/25 02:27:16;;;;;;;2.33;0.85;;;;;;;;;;5011886;28;20041;-69
2021/12/25 02:29:42;;;;;;;1.30;0.60;;;;;;;;;;5011410;28;20120;-71
2021/12/25 02:32:08;;;;;;;4.30;1.05;;;;;;;;;;5011843;28;20413;-68
2021/12/25 02:34:34;;;;;;;2.33;0.52;;;;;;;;;;5011715;28;20081;-68
2021/12/25 02:37:00;;;;;;;4.07;0.70;;;;;;;;;;5011522;28;20033;-68
2021/12/25 02:39:26;;;;;;;2.65;0.80;;;;;;;;;;5012392;28;20037;-70
2021/12/25 02:41:52;;;;;;;1.85;0.88;;;;;;;;;;5010696;28;20041;-71
2021/12/25 02:44:18;;;;;;;2.97;1.35;;;;;;;;;;5011540;28;20089;-71
2021/12/25 02:46:45;;;;;;;4.35;1.73;;;;;;;;;;5011604;28;20061;-71
2021/12/25 02:49:12;;;;;;;4.47;0.90;;;;;;;;;;5011250;28;20399;-68
2021/12/25 02:51:39;;;;;;;2.85;0.70;;;;;;;;;;5011416;28;20077;-68
2021/12/25 02:54:05;;;;;;;2.03;0.57;;;;;;;;;;5011168;28;20042;-68
2021/12/25 02:56:31;;;;;;;3.40;0.80;;;;;;;;;;5011394;28;20057;-67
2021/12/25 02:58:57;;;;;;;3.47;0.70;;;;;;;;;;5011092;28;20390;-68
2021/12/25 03:01:23;;;;;;;2.30;1.00;;;-1.10;99.90;;;;;;5010996;28;20030;-68
2021/12/25 03:03:49;;;;;;;2.78;0.73;;;;;;;;;;5012427;28;20033;-68
2021/12/25 03:06:15;;;;;;;2.13;0.90;;;;;;;;;;5011186;28;20092;-67
2021/12/25 03:08:41;;;;;;;3.33;1.20;;;;;;;;;;5010914;28;20053;-68
2021/12/25 03:11:08;;;;;;;5.45;0.88;;;;;;;;;;5010681;28;20049;-68
2021/12/25 03:13:43;;;;;;;2.08;0.73;;;-1.20;99.90;;;;;;5010866;28;20046;-67
2021/12/25 03:16:09;;;;;;;1.00;0.60;;;;;;;;;;5010835;28;20501;-69
2021/12/25 03:18:41;;;;;;;2.35;0.80;;;;;;;;;;5010651;28;20041;-68
2021/12/25 03:21:07;;;;;;;2.67;0.63;;;;;;;;;;5010555;28;20104;-67
2021/12/25 03:23:35;;;;;;;2.72;0.70;;;;;;;;;;4994853;28;20046;-68
2021/12/25 03:26:02;;;;;;;3.28;1.17;;;-1.10;99.90;;;;;;4994554;28;20048;-68
2021/12/25 03:28:31;;;;;;;5.88;0.70;;;;;;;;;;5010686;28;20440;-67
2021/12/25 03:31:04;;;;;;;1.00;0.50;;;;;;;;;;5010630;28;20049;-68
2021/12/25 03:33:30;;;;;;;2.05;0.50;;;;;;;;;;5010912;28;20125;-68
2021/12/25 03:35:56;;;;;;;3.63;0.55;;;-1.40;99.90;;;;;;5010538;28;20129;-67
2021/12/25 03:38:22;;;;;;;4.55;0.60;;;-1.30;99.90;;;;;;5010563;28;20049;-68
2021/12/25 03:40:49;;;;;;;2.72;0.70;;;;;;;;;;5010122;28;20405;-68
2021/12/25 03:43:15;;;;;;;1.80;0.63;;;;;;;;;;5010458;28;20049;-67
2021/12/25 03:45:42;;;;;;;2.70;0.60;;;;;;;;;;5010791;28;20461;-67
2021/12/25 03:48:16;;;;;;;1.33;0.60;;;;;;;;;;5010653;28;20327;-67
2021/12/25 03:58:51;;;;;;;3.92;0.82;;;;;;;;;;5010115;28;20107;-67
2021/12/25 04:04:16;;;;;;;3.03;0.50;;;;;;;;;;5010315;28;20038;-68
2021/12/25 04:06:47;;;;;;;1.33;0.57;;;;;;;;;;5010389;28;20042;-68
2021/12/25 04:09:25;;;;;;;1.00;0.55;;;;;;;;;;5010181;28;20054;-67
2021/12/25 04:11:52;;;;;;;3.53;0.70;;;;;;;;;;5010447;28;20042;-67
2021/12/25 04:14:18;;;;;;;5.05;0.70;;;;;;;;;;5011548;28;20046;-68
2021/12/25 04:16:44;;;;;;;0.70;0.50;;;-1.50;99.90;;;;;;5010526;28;20073;-68
2021/12/25 04:19:10;;;;;;;2.17;0.43;;;;;;;;;;5009716;28;20476;-71
2021/12/25 04:21:40;;;;;;;3.72;0.52;;;;;;;;;;5010742;28;20088;-71
2021/12/25 04:24:06;;;;;;;1.38;0.75;;;;;;;;;;5010014;28;20125;-68
2021/12/25 04:26:36;;;;;;;3.40;0.60;;;;;;;;;;5009986;28;20125;-69
2021/12/25 04:29:17;;;;;;;1.80;0.63;;;;;;;;;;5011172;28;20037;-69
2021/12/25 04:48:53;;;;;;;2.83;0.88;;;-1.80;99.90;;;;;;5011168;28;20129;-67
2021/12/25 05:04:43;;;;;;;1.00;0.60;;;-1.90;99.90;;;;;;5011144;28;20073;-68
2021/12/25 05:07:05;;;;;;;3.40;0.65;;;-2.10;99.90;;;;;;5013145;28;20404;-67
2021/12/25 05:09:31;;;;;;;0.52;0.45;;;;;;;;;;5012297;28;20044;-68
2021/12/25 05:11:57;;;;;;;2.58;0.70;;;;;;;;;;4996983;28;20100;-67
2021/12/25 05:14:23;;;;;;;1.00;0.60;;;;;;;;;;5013247;28;20050;-68
2021/12/25 05:16:49;;;;;;;1.20;0.50;;;;;;;;;;5013088;28;20489;-68
2021/12/25 05:19:15;;;;;;;3.90;1.08;;;;;;;;;;5012773;28;20061;-68
2021/12/25 05:21:41;;;;;;;1.45;0.60;;;;;;;;;;5012074;28;20036;-68
2021/12/25 05:24:07;;;;;;;2.15;0.40;;;;;;;;;;5010777;28;20037;-70
2021/12/25 05:26:34;;;;;;;3.28;0.60;;;;;;;;;;4988260;28;20108;-69
2021/12/25 05:29:01;;;;;;;3.05;0.40;;;;;;;;;;5012190;28;20030;-70
2021/12/25 05:31:28;;;;;;;2.15;0.82;;;;;;;;;;5012184;28;20112;-68
2021/12/25 05:33:54;;;;;;;2.78;0.63;;;;;;;;;;5012359;28;20042;-68
2021/12/25 05:36:20;;;;;;;0.50;0.40;;;-2.00;99.90;;;;;;5012240;28;20038;-67
2021/12/25 05:38:46;;;;;;;2.05;0.50;;;;;;;;;;5012277;28;20046;-67
2021/12/25 05:41:12;;;;;;;1.65;0.60;;;;;;;;;;5011890;28;20511;-69
2021/12/25 05:43:39;;;;;;;2.97;0.50;;;;;;;;;;5012190;28;20069;-69
2021/12/25 05:46:05;;;;;;;2.45;0.60;;;-2.00;99.90;;;;;;5012146;28;20053;-66
2021/12/25 05:48:35;;;;;;;1.48;0.60;;;-2.20;99.90;;;;;;5012081;28;20033;-67
2021/12/25 05:51:02;;;;;;;3.97;1.08;;;;;;;;;;5011744;28;20124;-68
2021/12/25 05:53:28;;;;;;;1.63;0.63;;;;;;;;;;5012012;28;20034;-66
2021/12/25 05:55:53;;;;;;;0.60;0.50;;;-2.20;99.90;;;;;;5011781;28;20048;-66
2021/12/25 05:58:19;;;;;;;1.20;0.63;;;;;;;;;;5013283;28;20034;-67
2021/12/25 06:00:45;;;;;;;2.95;0.82;;;;;;;;;;5011493;28;20119;-69
2021/12/25 06:03:11;;;;;;;0.95;0.40;;;;;;;;;;5011956;28;20041;-70
2021/12/25 06:05:37;;;;;;;4.03;0.50;;;;;;;;;;5012016;28;20118;-65
2021/12/25 06:08:04;;;;;;;1.17;0.50;;;;;;;;;;5012250;28;20037;-72
2021/12/25 06:10:30;;;;;;;0.70;0.50;;;;;;;;;;4994222;28;20045;-72
2021/12/25 06:12:58;;;;;;;5.55;0.77;;;;;;;;;;5010209;28;20137;-72
2021/12/25 06:15:26;;;;;;;0.98;0.60;;;;;;;;;;5012614;28;20148;-69
2021/12/25 06:17:52;;;;;;;0.75;0.60;;;;;;;;;;5011914;28;20080;-68
2021/12/25 06:20:18;;;;;;;1.67;0.60;;;;;;;;;;5012722;28;20468;-68
2021/12/25 06:22:44;;;;;;;0.75;0.50;;;;;;;;;;5012155;28;20418;-68
2021/12/25 06:25:10;;;;;;;2.65;1.20;;;;;;;;;;5011758;28;20065;-69
2021/12/25 06:27:39;;;;;;;2.00;0.52;;;;;;;;;;5008719;28;20038;-68
2021/12/25 06:30:06;;;;;;;0.88;0.45;;;-2.50;99.90;;;;;;5010092;28;20045;-69
2021/12/25 06:32:33;;;;;;;2.75;0.80;;;;;;;;;;5010713;28;20046;-67
2021/12/25 06:34:59;;;;;;;0.63;0.40;;;;;;;;;;5010661;28;20404;-68
2021/12/25 06:37:25;;;;;;;1.17;0.55;;;;;;;;;;5010475;28;20034;-68
2021/12/25 06:39:51;;;;;;;0.68;0.50;;;;;;;;;;5010426;28;20042;-71
2021/12/25 06:42:17;;;;;;;3.90;0.60;;;;;;;;;;4994021;28;20046;-68
2021/12/25 06:44:43;;;;;;;4.15;0.55;;;;;;;;;;5010463;28;20245;-65
2021/12/25 06:47:09;;;;;;;4.40;1.67;;;;;;;;;;5010550;28;20425;-68
2021/12/25 06:49:35;;;;;;;1.13;0.52;;;;;;;;;;5009896;28;20112;-67
2021/12/25 06:52:02;;;;;;;4.20;1.00;;;;;;;;;;5010102;28;20413;-67
2021/12/25 06:54:27;;;;;;;1.20;0.50;;;;;;;;;;5010045;28;20046;-68
2021/12/25 06:56:54;;;;;;;3.00;0.95;;;;;;;;;;5011472;28;20065;-69
2021/12/25 06:59:21;;;;;;;2.08;0.45;;;;;;;;;;4993764;28;20041;-68
2021/12/25 07:01:47;;;;;;;4.72;0.70;;;;;;;;;;5010338;28;20042;-68
2021/12/25 07:04:13;;;;;;;1.77;0.68;;;;;;;;;;5010253;28;20049;-68
2021/12/25 07:06:40;;;;;;;0.40;0.40;;;;;;;;;;5010094;28;20038;-68
2021/12/25 07:09:06;;;;;;;4.75;1.13;;;;;;;;;;5009647;28;20041;-69
2021/12/25 07:11:33;;;;;;;3.60;0.90;;;;;;;;;;5011128;28;20030;-71
2021/12/25 07:14:02;;;;;;;2.45;0.40;;;;;;;;;;5009834;28;20042;-68
2021/12/25 07:16:28;;;;;;;0.68;0.30;;;;;;;;;;5009712;28;20046;-68
2021/12/25 07:18:54;;;;;;;1.77;0.55;;;;;;;;;;5010740;28;20030;-67
2021/12/25 07:21:20;;;;;;;2.00;0.70;;;;;;;;;;5011371;28;20037;-69
2021/12/25 07:23:46;;;;;;;1.38;0.90;;;;;;;;;;5010217;28;20037;-68
2021/12/25 07:26:12;;;;;;;3.85;0.52;;;;;;;;;;4989819;28;20424;-69
2021/12/25 07:28:38;;;;;;;1.45;0.73;;;;;;;;;;5010139;28;20611;-70
2021/12/25 07:31:05;;;;;;;3.42;0.90;;;;;;;;;;5009735;28;20073;-68
2021/12/25 07:33:32;;;;;;;2.17;0.73;;;;;;;;;;5010653;28;20046;-69
2021/12/25 07:35:58;;;;;;;0.50;0.50;;;;;;;;;;5010586;28;20082;-67
2021/12/25 07:38:24;;;;;;;6.80;0.70;;;;;;;;;;5005780;28;20132;-68
2021/12/25 07:40:50;;;;;;;1.35;0.93;;;;;;;;;;5011707;28;20565;-67
2021/12/25 07:43:20;;;;;;;1.42;0.60;;;;;;;;;;5011313;28;20327;-67
2021/12/25 07:45:51;;;;;;;0.98;0.60;;;;;;;;;;5031582;28;20037;-67
2021/12/25 07:48:19;;;;;;;1.73;0.75;;;;;;;;;;5008174;28;20045;-68
2021/12/25 07:50:45;;;;;;;3.88;0.80;;;;;;;;;;4993523;28;20465;-69
2021/12/25 07:53:12;;;;;;;1.13;0.63;;;;;;;;;;5010253;28;20046;-68
2021/12/25 07:55:38;;;;;;;0.95;0.68;;;;;;;;;;5008587;28;20354;-68
2021/12/25 07:58:04;;;;;;;4.75;0.88;;;;;;;;;;5009912;28;20038;-69
2021/12/25 08:00:30;;;;;;;4.13;0.95;;;;;;;;;;5010173;28;20037;-68
2021/12/25 08:02:56;;;;;;;2.90;0.60;;;;;;;;;;5010444;28;20044;-70
2021/12/25 08:05:22;;;;;;;1.35;0.60;;;;;;;;;;5010091;28;20045;-67
2021/12/25 08:07:48;;;;;;;1.13;0.60;;;;;;;;;;5011385;28;20042;-67
2021/12/25 08:10:16;;;;;;;2.88;1.10;;;;;;;;;;5009971;28;20100;-66
2021/12/25 08:12:46;;;;;;;1.70;1.05;;;;;;;;;;4993856;28;20121;-67
2021/12/25 08:15:13;;;;;;;0.50;0.50;;;;;;;;;;5009831;28;20128;-67
2021/12/25 08:17:39;;;;;;;2.67;1.08;;;;;;;;;;5010156;28;20045;-69
2021/12/25 08:20:06;;;;;;;1.30;0.70;;;;;;;;;;5010788;28;20048;-68
2021/12/25 08:22:32;;;;;;;2.22;0.75;;;;;;;;;;5010120;28;20125;-67
2021/12/25 08:24:58;;;;;;;3.05;0.70;;;;;;;;;;5010163;28;20080;-67
2021/12/25 08:27:24;;;;;;;2.42;0.70;;;;;;;;;;5010040;28;20486;-68
2021/12/25 08:29:50;;;;;;;2.25;0.90;;;;;;;;;;5009971;28;20124;-67
2021/12/25 08:32:16;;;;;;;3.00;0.60;;;;;;;;;;5010002;28;20495;-69
2021/12/25 08:34:43;;;;;;;0.75;0.45;;;;;;;;;;5009605;28;20069;-71
2021/12/25 08:37:09;;;;;;;2.78;0.90;;;;;;;;;;4993493;28;20042;-67
2021/12/25 08:39:36;;;;;;;3.53;0.80;;;;;;;;;;5011475;28;20049;-67
2021/12/25 08:42:02;;;;;;;3.40;1.08;;;;;;;;;;4997227;28;20041;-67
2021/12/25 08:44:33;;;;;;;1.90;0.70;;;;;;;;;;5013677;28;20046;-70
2021/12/25 08:47:00;;;;;;;3.17;0.82;;;;;;;;;;5013556;28;20046;-69
2021/12/25 08:49:31;;;;;;;2.28;0.70;;;;;;;;;;5013565;28;20076;-67
2021/12/25 08:51:58;;;;;;;3.17;0.68;;;;;;;;;;5013463;28;20480;-68
2021/12/25 08:54:24;;;;;;;4.57;0.90;;;;;;;;;;5014881;28;20038;-67
2021/12/25 08:56:50;;;;;;;0.85;0.57;;;;;;;;;;5013406;28;20037;-68
2021/12/25 08:59:16;;;;;;;2.50;1.00;;;;;;;;;;5013140;28;20493;-69
2021/12/25 09:01:42;;;;;;;2.92;0.80;;;;;;;;;;5013259;28;20497;-68
2021/12/25 09:04:08;;;;;;;6.65;1.13;;;;;;;;;;5014611;28;20045;-68
2021/12/25 09:06:34;;;;;;;3.35;1.10;;;;;;;;;;5013503;28;20401;-68
2021/12/25 09:09:01;;;;;;;2.47;0.68;;;;;;;;;;5011197;28;20046;-69
2021/12/25 09:11:27;;;;;;;1.10;0.52;;;;;;;;;;5009769;28;20577;-68
2021/12/25 09:13:53;;;;;;;2.08;1.25;;;;;;;;;;5009889;28;20045;-68
2021/12/25 09:16:19;;;;;;;1.75;0.65;;;;;;;;;;5006619;28;20038;-69
2021/12/25 09:18:46;;;;;;;2.03;0.70;;;;;;;;;;4993319;28;20128;-68
2021/12/25 09:21:12;;;;;;;0.70;0.60;;;;;;;;;;5003560;28;20080;-68
2021/12/25 09:23:38;;;;;;;0.98;0.63;;;;;;;;;;5010155;28;20069;-67
2021/12/25 09:26:04;;;;;;;3.35;0.65;;;;;;;;;;5010057;28;20105;-67
2021/12/25 09:28:30;;;;;;;6.68;1.02;;;;;;;;;;5010213;28;20041;-67
2021/12/25 09:30:56;;;;;;;1.73;0.70;;;;;;;;;;5009649;28;20119;-66
2021/12/25 09:33:22;;;;;;;1.52;0.60;;;;;;;;;;5005557;28;20084;-67
2021/12/25 09:35:48;;;;;;;2.00;0.82;;;;;;;;;;5011972;28;20073;-67
2021/12/25 09:38:14;;;;;;;2.97;0.55;;;;;;;;;;5009310;28;20033;-67
2021/12/25 09:40:40;;;;;;;1.40;0.77;;;;;;;;;;4992657;28;20057;-66
2021/12/25 09:43:06;;;;;;;5.35;0.63;;;;;;;;;;5009382;28;20044;-69
2021/12/25 09:45:32;;;;;;;1.70;0.80;;;;;;;;;;5007522;28;20498;-69
2021/12/25 09:47:59;;;;;;;1.33;0.93;;;;;;;;;;5009202;28;20034;-70
2021/12/25 09:50:25;;;;;;;1.55;0.80;;;;;;;;;;5007799;28;20042;-70
2021/12/25 09:52:51;;;;;;;1.65;0.80;;;;;;;;;;5004039;28;20086;-67
2021/12/25 09:55:17;;;;;;;3.08;0.90;;;;;;;;;;5008441;28;20613;-67
2021/12/25 09:57:43;;;;;;;1.73;0.70;;;;;;;;;;5009258;28;20045;-68
2021/12/25 10:00:19;;;;;;;2.65;1.10;;;;;;;;;;5007009;28;20038;-68
2021/12/25 10:02:47;;;;;;;4.70;0.80;;;;;;;;;;5008223;28;20046;-68
2021/12/25 10:05:13;;;;;;;1.17;0.52;;;;;;;;;;5008326;28;20046;-69
2021/12/25 10:07:40;;;;;;;2.50;0.75;;;;;;;;;;5005630;28;20038;-65
2021/12/25 10:10:10;;;;;;;1.52;0.68;;;;;;;;;;5007277;28;20042;-70
2021/12/25 10:12:41;;;;;;;5.18;0.90;;;;;;;;;;5007855;28;20053;-68
2021/12/25 10:15:08;;;;;;;2.15;1.02;;;;;;;;;;5008429;28;20424;-68
2021/12/25 10:17:34;;;;;;;1.67;0.70;;;;;;;;;;5008729;28;20095;-68
2021/12/25 10:20:14;;;;;;;3.75;0.95;;;;;;;;;;4992051;28;20045;-68
2021/12/25 10:22:57;;;;;;;5.15;0.82;;;;;;;;;;5008096;28;20049;-69
2021/12/25 10:25:24;;;;;;;4.57;1.25;;;;;;;;;;5011107;28;20061;-70
2021/12/25 10:27:57;;;;;;;4.60;1.67;;;-1.10;99.90;;;;;;5010826;28;20052;-68
2021/12/25 10:30:24;;;;;;;1.45;0.90;;;;;;;;;;4993425;28;20401;-69
2021/12/25 10:32:50;;;;;;;4.30;0.82;;;;;;;;;;5011928;28;20103;-69
2021/12/25 10:35:27;;;;;;;2.03;1.15;;;;;;;;;;4993379;28;20043;-69
2021/12/25 10:37:54;;;;;;;2.83;1.20;;;;;;;;;;5011597;28;20516;-68
2021/12/25 10:40:24;;;;;;;1.75;1.42;;;;;;;;;;5011231;28;20444;-70
2021/12/25 10:42:51;;;;;;;1.50;1.13;;;;;;;;;;5011399;28;20073;-68
2021/12/25 10:45:17;;;;;;;2.30;0.82;;;;;;;;;;5010952;28;20147;-68
2021/12/25 10:47:43;;;;;;;2.45;0.60;;;;;;;;;;4994984;28;20046;-67
2021/12/25 10:50:14;;;;;;;7.93;1.05;;;-1.20;99.90;;;;;;5011190;28;20046;-68
2021/12/25 10:52:44;;;;;;;5.07;1.35;;;-1.20;99.90;;;;;;4994946;28;20049;-67
2021/12/25 10:55:16;;;;;;;1.80;0.70;;;;;;;;;;5011435;28;20455;-67
2021/12/25 10:57:47;;;;;;;1.02;0.70;;;;;;;;;;5011340;28;20084;-67
2021/12/25 11:00:24;;;;;;;2.30;0.57;;;;;;;;;;5007454;28;20041;-68
2021/12/25 11:02:50;;;;;;;4.63;1.67;;;;;;;;;;5022085;28;20044;-68
2021/12/25 11:05:30;;;;;;;3.40;0.70;;;;;;;;;;5004505;28;20164;-67
2021/12/25 11:08:06;;;;;;;1.27;0.70;;;;;;;;;;5007630;28;20058;-68
2021/12/25 11:10:32;;;;;;;4.45;0.95;;;;;;;;;;5027236;28;20037;-69
2021/12/25 11:12:58;;;;;;;1.70;0.57;;;-0.90;99.90;;;;;;5030346;28;20141;-68
2021/12/25 11:15:30;;;;;;;2.85;0.85;;;;;;;;;;5030229;28;20128;-68
2021/12/25 11:18:05;;;;;;;1.02;0.63;;;;;;;;;;5017166;28;21521;-68
2021/12/25 11:20:33;;;;;;;2.28;0.73;;;;;;;;;;5020665;28;20045;-67
2021/12/25 11:23:00;;;;;;;2.22;0.68;;;;;;;;;;5009440;28;20071;-68
2021/12/25 11:25:29;;;;;;;2.17;0.75;;;;;;;;;;5017318;28;20491;-67
2021/12/25 11:27:55;;;;;;;0.82;0.60;;;;;;;;;;5017322;28;20045;-66
2021/12/25 11:30:22;;;;;;;4.00;1.17;;;;;;;;;;5018321;28;20033;-69
2021/12/25 11:32:49;;;;;;;6.13;0.70;;;;;;;;;;5018818;28;20049;-68
2021/12/25 11:35:19;;;;;;;1.80;1.25;;;;;;;;;;5010508;28;20496;-68
2021/12/25 11:37:45;;;;;;;3.00;0.88;;;;;;;;;;5006731;28;20040;-69
2021/12/25 11:40:12;;;;;;;2.60;1.10;;;;;;;;;;5009253;28;20133;-68
2021/12/25 11:42:45;;;;;;;4.25;1.10;;;;;;;;;;5004885;28;20038;-71
2021/12/25 11:45:20;;;;;;;1.48;0.77;;;;;;;;;;4996750;28;20049;-68
2021/12/25 11:47:47;;;;;;;3.60;0.75;;;;;;;;;;5001350;28;20046;-70
2021/12/25 11:50:16;;;;;;;4.07;1.13;;;;;;;;;;5002202;28;20069;-69
2021/12/25 11:52:55;;;;;;;4.65;0.90;;;;;;;;;;5004905;28;20135;-69
2021/12/25 11:55:36;;;;;;;2.42;1.00;;;;;;;;;;5001331;28;20480;-70
2021/12/25 11:58:18;;;;;;;3.15;0.98;;;;;;;;;;4986396;28;20069;-69
2021/12/25 12:00:46;;;;;;;3.13;1.00;;;;;;;;;;5002037;28;20061;-68
2021/12/25 12:03:31;;;;;;;5.65;1.10;;;;;;;;;;5005387;28;20037;-68
2021/12/25 12:05:57;;;;;;;2.30;1.25;;;;;;;;;;5003047;28;20076;-67
2021/12/25 12:08:23;;;;;;;4.22;1.10;;;;;;;;;;5004127;28;20093;-69
2021/12/25 12:10:50;;;;;;;2.65;1.17;;;;;;;;;;5002786;28;20506;-70
2021/12/25 12:13:16;;;;;;;4.28;1.52;;;;;;;;;;5007862;28;20489;-69
2021/12/25 12:15:50;;;;;;;6.00;1.73;;;;;;;;;;5009680;28;20042;-71
2021/12/25 12:18:30;;;;;;;3.33;1.02;;;;;;;;;;5007654;28;20694;-71
2021/12/25 12:21:07;;;;;;;2.42;0.82;;;;;;;;;;5060072;22;20057;-74
2021/12/25 12:26:13;;;;;;;3.00;0.82;;;;;;;;;;5042092;28;20076;-74
2021/12/25 12:28:47;;;;;;;3.53;0.88;;;;;;;;;;5034037;28;20036;-73
2021/12/25 12:31:33;;;;;;;1.63;0.80;;;;;;;;;;5014356;28;20045;-72
2021/12/25 12:33:59;;;;;;;7.15;0.75;;;;;;;;;;5036416;28;20095;-73
2021/12/25 12:36:26;;;;;;;1.85;0.90;;;;;;;;;;5028358;28;20065;-74
2021/12/25 12:38:56;;;;;;;2.75;0.70;;;;;;;;;;5044833;28;20042;-73
2021/12/25 12:41:26;;;;;;;1.23;1.05;;;;;;;;;;5013650;28;20076;-73
2021/12/25 12:43:57;;;;;;;3.45;0.85;;;;;;;;;;5011458;28;20042;-74
2021/12/25 12:46:45;;;;;;;2.72;0.73;;;-0.60;99.90;;;;;;5014615;28;20042;-75
2021/12/25 12:49:10;;;;;;;3.05;0.98;;;;;;;;;;5030670;28;20041;-75
2021/12/25 12:51:37;;;;;;;2.95;0.77;;;;;;;;;;4998148;28;20501;-73
2021/12/25 12:54:03;;;;;;;2.58;0.80;;;;;;;;;;5027926;28;20088;-74
2021/12/25 12:56:29;;;;;;;3.60;0.95;;;;;;;;;;5014213;28;20034;-74
2021/12/25 12:58:56;;;;;;;3.70;0.88;;;;;;;;;;5016271;28;20095;-74
2021/12/25 13:01:23;;;;;;;2.42;0.80;;;;;;;;;;5003279;28;20041;-75
2021/12/25 13:03:54;;;;;;;5.68;0.70;;;;;;;;;;5029821;28;20577;-74
2021/12/25 13:06:20;;;;;;;1.95;0.90;;;;;;;;;;5030190;28;20049;-73
2021/12/25 13:08:47;;;;;;;4.38;0.90;;;;;;;;;;5029924;28;20047;-76
2021/12/25 13:11:27;;;;;;;1.95;1.00;;;;;;;;;;5029519;28;20049;-76
2021/12/25 13:13:57;;;;;;;2.55;1.27;;;;;;;;;;5003509;28;20103;-73
2021/12/25 13:16:27;;;;;;;1.25;0.85;;;;;;;;;;5016709;28;20048;-75
2021/12/25 13:18:54;;;;;;;2.97;1.15;;;;;;;;;;5046952;28;20531;-73
2021/12/25 13:21:28;;;;;;;1.65;0.75;;;;;;;;;;5020316;28;20083;-74
2021/12/25 13:23:56;;;;;;;;;;;;;;;;;;5015827;28;20632;-73
2021/12/25 13:26:30;;;;;;;3.38;0.80;;;;;;;;;;5030294;28;20452;-74
2021/12/25 13:28:56;;;;;;;1.35;0.80;;;;;;;;;;5013752;28;20075;-74
2021/12/25 13:31:24;;;;;;;4.00;1.23;;;-0.80;99.90;;;;;;5032224;28;20072;-76
2021/12/25 13:33:52;;;;;;;1.95;0.77;;;;;;;;;;5031809;28;20033;-76
2021/12/25 13:36:24;;;;;;;3.15;1.20;;;-0.40;99.90;;;;;;5033145;28;20037;-76
2021/12/25 13:38:50;;;;;;;3.83;0.95;;;;;;;;;;5032554;28;20038;-77
2021/12/25 13:41:27;;;;;;;3.83;1.00;;;;;;;;;;5032571;28;20107;-76
2021/12/25 13:44:13;;;;;;;1.25;0.80;;;;;;;;;;5031499;28;20091;-75
2021/12/25 13:46:41;;;;;;;3.08;1.20;;;;;;;;;;5032609;28;20385;-75
2021/12/25 13:49:36;;;;;;;1.45;1.00;;;-0.70;99.90;;;;;;5008537;28;20042;-75
2021/12/25 13:52:06;;;;;;;2.58;1.10;;;-0.60;99.90;;;;;;5013483;28;20045;-75
2021/12/25 13:54:34;;;;;;;2.65;1.30;;;-0.60;99.90;;;;;;5012438;28;20041;-75
2021/12/25 13:57:00;;;;;;;1.38;1.20;;;;;;;;;;5030460;28;20125;-76
2021/12/25 13:59:26;;;;;;;1.80;0.90;;;;;;;;;;5031745;28;20083;-76
2021/12/25 14:01:57;;;;;;;5.82;1.75;;;;;;;;;;5015026;28;20127;-75
2021/12/25 14:04:23;;;;;;;3.63;1.35;;;;;;;;;;5031813;28;20463;-74
2021/12/25 14:06:49;;;;;;;4.82;1.25;;;;;;;;;;5031641;28;20160;-76
2021/12/25 14:09:15;;;;;;;9.68;2.08;;;;;;;;;;5011605;28;20733;-77
2021/12/25 14:11:49;;;;;;;2.72;1.20;;;;;;;;;;5014251;28;20050;-75
2021/12/25 14:14:16;;;;;;;2.58;1.20;;;-0.70;99.90;;;;;;5030159;28;20446;-74
2021/12/25 14:16:43;;;;;;;1.88;1.20;;;;;;;;;;5032198;28;20061;-75
2021/12/25 14:19:13;;;;;;;1.67;0.98;;;;;;;;;;5030743;28;20054;-74
2021/12/25 14:21:39;;;;;;;2.58;1.00;;;;;;;;;;5008104;28;20045;-76
2021/12/25 14:24:06;;;;;;;6.97;1.65;;;;;;;;;;5027048;28;20041;-75
2021/12/25 14:26:32;;;;;;;5.45;1.10;;;;;;;;;;5024536;28;20038;-75
2021/12/25 14:28:58;;;;;;;1.05;0.80;;;;;;;;;;5020152;28;20037;-74
2021/12/25 14:31:24;;;;;;;1.77;0.93;;;;;;;;;;5028167;28;20064;-76
2021/12/25 14:34:01;;;;;;;2.78;0.90;;;;;;;;;;5027623;28;20405;-75
2021/12/25 14:36:29;;;;;;;1.60;1.13;;;;;;;;;;5028913;28;20120;-74
2021/12/25 14:38:56;;;;;;;3.70;2.03;;;;;;;;;;5028302;28;20037;-75
2021/12/25 14:41:29;;;;;;;6.03;1.27;;;;;;;;;;5029560;28;20038;-75
2021/12/25 14:43:55;;;;;;;3.75;1.20;;;;;;;;;;5030775;28;20039;-73
2021/12/25 14:46:23;;;;;;;3.50;1.10;;;;;;;;;;5031018;28;20053;-75
2021/12/25 14:48:49;;;;;;;3.92;1.88;;;;;;;;;;5013987;28;20044;-74
2021/12/25 14:51:17;;;;;;;5.75;1.13;;;-1.00;99.90;;;;;;5030279;28;20041;-74
2021/12/25 14:53:46;;;;;;;3.75;1.45;;;-1.00;99.90;;;;;;5030453;28;20045;-75
2021/12/25 14:56:16;;;;;;;4.20;1.20;;;;;;;;;;5030118;28;20041;-75
2021/12/25 14:58:46;;;;;;;4.53;1.20;;;;;;;;;;5029111;28;20052;-75
2021/12/25 15:01:14;;;;;;;5.22;1.42;;;;;;;;;;5028647;28;20129;-74
2021/12/25 15:03:41;;;;;;;3.33;1.15;;;;;;;;;;5029404;28;20515;-74
2021/12/25 15:06:16;;;;;;;3.20;1.35;;;;;;;;;;5028403;28;20049;-73
2021/12/25 15:08:42;;;;;;;2.95;1.25;;;;;;;;;;5026464;28;20371;-75
2021/12/25 15:11:14;;;;;;;2.97;0.85;;;-1.30;99.90;;;;;;5028799;28;20041;-74
2021/12/25 15:13:41;;;;;;;3.88;1.27;;;;;;;;;;5029933;28;20076;-74
2021/12/25 15:16:08;;;;;;;4.70;1.40;;;;;;;;;;5028896;28;20083;-74
2021/12/25 15:18:35;;;;;;;2.35;1.25;;;;;;;;;;5026881;28;20117;-73
2021/12/25 15:21:09;;;;;;;2.22;1.10;;;;;;;;;;5028967;28;20040;-74
2021/12/25 15:23:36;;;;;;;6.63;1.58;;;;;;;;;;5028962;28;20033;-74
2021/12/25 15:26:05;;;;;;;3.08;1.80;;;;;;;;;;5029113;28;20802;-73
2021/12/25 15:28:31;;;;;;;1.95;1.10;;;;;;;;;;5029879;28;20041;-74
2021/12/25 15:30:57;;;;;;;3.15;1.90;;;;;;;;;;5029994;28;20156;-75
2021/12/25 15:33:24;;;;;;;5.13;1.70;;;;;;;;;;5011523;28;20057;-74
2021/12/25 15:35:50;;;;;;;2.55;1.13;;;;;;;;;;5030259;28;20041;-75